logo tempoitalia

Diretta Meteo Zagreb-Pleso, Croazialunedì 31 agosto ore 07:00

Mappa
Sereno 16 °C Sereno 24 Ore: T.min 16 T.max 32
Ponente Nord Km/h 1.8 Punto di rugiada: 15 °C Umidità: 93% Visibilità: 10 Km
Il sole sorge alle: 06:15 Il sole tramonta alle: 19:36
31 Agosto 2026 07:00 tempo osservato: Sereno Sereno 16 93 1014 vento: Nord N 1.8
31 Agosto 2026 06:30 tempo osservato: Sereno Sereno 16 93 1014 vento: Nord N 3.7
31 Agosto 2026 06:00 tempo osservato: Sereno Sereno 16 93 1014 vento: Nord N 3.7
31 Agosto 2026 05:30 tempo osservato: Sereno Sereno 17 88 1014 vento: Nord S/SO 7.4
31 Agosto 2026 05:00 tempo osservato: Sereno Sereno 17 88 1014 vento: Nord N 5.5
31 Agosto 2026 04:30 tempo osservato: Sereno Sereno 17 88 1014 vento: Nord N 5.5
31 Agosto 2026 04:00 tempo osservato: Sereno Sereno 17 88 1014 vento: Nord N 5.5
31 Agosto 2026 03:30 tempo osservato: Sereno Sereno 17 88 1014 vento: Nord N 1.8
31 Agosto 2026 03:00 tempo osservato: Sereno Sereno 17 88 1015 vento: Nord N 3.7
31 Agosto 2026 02:30 tempo osservato: Sereno Sereno 18 82 1015 vento: Nord N 3.7
31 Agosto 2026 02:00 tempo osservato: Sereno Sereno 18 82 1015 vento: Nord N 5.5
31 Agosto 2026 01:30 tempo osservato: Sereno Sereno 19 77 1015 vento: Nord N 5.5
31 Agosto 2026 01:00 tempo osservato: Sereno Sereno 19 77 1015 vento: Nord N 5.5
31 Agosto 2026 00:30 tempo osservato: Sereno Sereno 19 77 1015 vento: Nord N 1.8
31 Agosto 2026 00:00 tempo osservato: Sereno Sereno 20 72 1015 vento: Nord N 1.8
30 Agosto 2026 23:30 tempo osservato: Sereno Sereno 20 72 1015 vento: Nord N 1.8
30 Agosto 2026 23:00 tempo osservato: Sereno Sereno 21 64 1015 vento: Nord N 0
30 Agosto 2026 22:30 tempo osservato: Sereno Sereno 22 64 1015 vento: Nord N 1.8
30 Agosto 2026 22:00 tempo osservato: Sereno Sereno 23 60 1015 vento: Nord N 0
30 Agosto 2026 21:30 tempo osservato: Sereno Sereno 24 57 1015 vento: Nord N 5.5
30 Agosto 2026 21:00 tempo osservato: Sereno Sereno 25 50 1015 vento: Nord N 5.5
30 Agosto 2026 20:30 tempo osservato: Sereno Sereno 26 47 1015 vento: Nord N 5.5
30 Agosto 2026 20:00 tempo osservato: Sereno Sereno 27 42 1014 vento: Nord E 7.4
30 Agosto 2026 19:30 tempo osservato: Sereno Sereno 29 37 1014 vento: Nord E 7.4
30 Agosto 2026 19:00 tempo osservato: Sereno Sereno 30 35 1014 vento: Nord NE 7.4
30 Agosto 2026 18:30 tempo osservato: Sereno Sereno 31 33 1014 vento: Nord N 5.5
30 Agosto 2026 18:00 tempo osservato: Sereno Sereno 32 31 1014 vento: Nord NE 9.3
30 Agosto 2026 17:30 tempo osservato: Sereno Sereno 32 31 1014 vento: Nord N/NE 7.4
30 Agosto 2026 17:00 tempo osservato: Sereno Sereno 32 33 1014 vento: Nord NE 7.4
30 Agosto 2026 16:30 tempo osservato: Sereno Sereno 32 33 1014 vento: Nord N 5.5
30 Agosto 2026 16:00 tempo osservato: Sereno Sereno 32 33 1015 vento: Nord N 7.4
30 Agosto 2026 15:30 tempo osservato: Sereno Sereno 32 35 1015 vento: Nord E/NE 9.3
30 Agosto 2026 15:00 tempo osservato: Sereno Sereno 31 37 1015 vento: Nord SE 9.3
30 Agosto 2026 14:30 tempo osservato: Sereno Sereno 31 40 1016 vento: Nord N 9.3
30 Agosto 2026 14:00 tempo osservato: Sereno Sereno 31 40 1016 vento: Nord N 3.7
30 Agosto 2026 13:30 tempo osservato: Sereno Sereno 30 42 1016 vento: Nord N 9.3
30 Agosto 2026 13:00 tempo osservato: Sereno Sereno 29 42 1017 vento: Nord N 7.4
30 Agosto 2026 12:30 tempo osservato: Sereno Sereno 29 42 1017 vento: Nord N 5.5
30 Agosto 2026 12:00 tempo osservato: Sereno Sereno 29 42 1017 vento: Nord N 7.4
30 Agosto 2026 11:30 tempo osservato: Sereno Sereno 28 45 1017 vento: Nord NE 7.4
30 Agosto 2026 11:00 tempo osservato: Sereno Sereno 27 44 1017 vento: Nord E 7.4
30 Agosto 2026 10:30 tempo osservato: Sereno Sereno 27 44 1017 vento: Nord N 5.5
30 Agosto 2026 10:00 tempo osservato: Sereno Sereno 24 53 1017 vento: Nord N 3.7
30 Agosto 2026 09:30 tempo osservato: Sereno Sereno 24 57 1017 vento: Nord N 3.7
30 Agosto 2026 09:00 tempo osservato: Sereno Sereno 22 64 1017 vento: Nord N 1.8
30 Agosto 2026 08:30 tempo osservato: Sereno Sereno 20 72 1017 vento: Nord N 1.8
30 Agosto 2026 08:00 tempo osservato: Sereno Sereno 18 82 1017 vento: Nord N 3.7